createdAt,value
2018-07-05T00:01:47.571Z,14.93
2018-07-05T00:04:34.504Z,14.96
2018-07-05T00:07:20.879Z,14.91
2018-07-05T00:10:07.251Z,14.88
2018-07-05T00:12:53.610Z,14.76
2018-07-05T00:15:40.043Z,14.69
2018-07-05T00:18:26.516Z,14.64
2018-07-05T00:21:12.961Z,14.72
2018-07-05T00:23:59.821Z,14.74
2018-07-05T00:26:46.152Z,14.78
2018-07-05T00:29:32.408Z,14.85
2018-07-05T00:32:19.046Z,14.79
2018-07-05T00:35:05.443Z,14.76
2018-07-05T00:37:51.839Z,14.74
2018-07-05T00:40:38.210Z,14.75
2018-07-05T00:43:24.624Z,14.73
2018-07-05T00:46:11.140Z,14.77
2018-07-05T00:48:57.412Z,14.70
2018-07-05T00:51:43.786Z,14.70
2018-07-05T00:54:30.211Z,14.71
2018-07-05T00:57:16.583Z,14.67
2018-07-05T01:00:02.970Z,14.63
2018-07-05T01:02:49.378Z,14.62
2018-07-05T01:05:35.767Z,14.66
2018-07-05T01:08:22.152Z,14.66
2018-07-05T01:11:08.566Z,14.77
2018-07-05T01:13:54.939Z,14.71
2018-07-05T01:16:41.326Z,14.69
2018-07-05T01:19:28.111Z,14.73
2018-07-05T01:22:14.498Z,14.75
2018-07-05T01:25:00.903Z,14.71
2018-07-05T01:27:47.522Z,14.62
2018-07-05T01:30:33.959Z,14.63
2018-07-05T01:33:20.370Z,14.66
2018-07-05T01:36:06.744Z,14.72
2018-07-05T01:38:52.983Z,14.59
2018-07-05T01:41:39.371Z,14.54
2018-07-05T01:44:25.779Z,14.53
2018-07-05T01:47:12.151Z,14.62
2018-07-05T01:49:58.686Z,14.57
2018-07-05T01:52:45.570Z,14.60
2018-07-05T01:55:31.952Z,14.56
2018-07-05T01:58:19.311Z,14.53
2018-07-05T02:01:06.036Z,14.58
2018-07-05T02:03:52.794Z,14.71
2018-07-05T02:06:39.135Z,14.63
2018-07-05T02:09:25.486Z,14.60
2018-07-05T02:12:11.878Z,14.64
2018-07-05T02:14:58.402Z,14.64
2018-07-05T02:17:44.969Z,14.64
2018-07-05T02:20:31.687Z,14.68
2018-07-05T02:23:18.066Z,14.51
2018-07-05T02:26:04.595Z,14.52
2018-07-05T02:28:51.046Z,14.57
2018-07-05T02:31:37.855Z,14.63
2018-07-05T02:34:24.275Z,14.61
2018-07-05T02:37:15.951Z,14.60
2018-07-05T02:40:02.152Z,14.61
2018-07-05T02:42:48.507Z,14.53
2018-07-05T02:45:34.940Z,14.54
2018-07-05T02:48:21.301Z,14.48
2018-07-05T02:51:07.619Z,14.55
2018-07-05T02:53:54.115Z,14.58
2018-07-05T02:56:41.696Z,14.64
2018-07-05T02:59:28.059Z,14.62
2018-07-05T03:02:14.383Z,14.62
2018-07-05T03:05:00.711Z,14.61
2018-07-05T03:07:47.183Z,14.62
2018-07-05T03:10:34.074Z,14.65
2018-07-05T03:13:20.651Z,14.58
2018-07-05T03:16:07.183Z,14.56
2018-07-05T03:18:53.935Z,14.81
2018-07-05T03:21:40.330Z,14.50
2018-07-05T03:24:26.827Z,14.44
2018-07-05T03:27:13.227Z,14.24
2018-07-05T03:29:59.601Z,14.40
2018-07-05T03:32:45.915Z,14.57
2018-07-05T03:35:33.087Z,14.52
2018-07-05T03:38:19.523Z,14.51
2018-07-05T03:41:05.898Z,14.51
2018-07-05T03:43:52.571Z,14.67
2018-07-05T03:46:39.404Z,14.76
2018-07-05T03:49:25.714Z,14.75
2018-07-05T03:52:13.070Z,14.74
2018-07-05T03:54:59.458Z,14.74
2018-07-05T03:57:46.044Z,14.75
2018-07-05T04:00:32.395Z,14.71
2018-07-05T04:03:18.887Z,14.74
2018-07-05T04:06:05.279Z,14.75
2018-07-05T04:08:51.681Z,14.84
2018-07-05T04:11:38.691Z,14.88
2018-07-05T04:14:24.940Z,14.96
2018-07-05T04:17:11.375Z,14.95
2018-07-05T04:19:57.726Z,15.03
2018-07-05T04:22:44.258Z,15.11
2018-07-05T04:25:30.686Z,15.16
2018-07-05T04:28:17.114Z,15.25
2018-07-05T04:31:03.575Z,15.28
2018-07-05T04:33:50.311Z,15.44
2018-07-05T04:36:36.952Z,15.42
2018-07-05T04:39:23.682Z,15.54
2018-07-05T04:42:09.967Z,15.67
2018-07-05T04:44:56.436Z,15.85
2018-07-05T04:47:42.539Z,16.02
2018-07-05T04:50:29.227Z,16.11
2018-07-05T04:53:15.723Z,16.39
2018-07-05T04:56:02.220Z,16.53
2018-07-05T04:58:48.627Z,16.68
2018-07-05T05:01:35.069Z,16.87
2018-07-05T05:04:21.591Z,17.08
2018-07-05T05:07:08.182Z,17.30
2018-07-05T05:09:54.615Z,17.46
2018-07-05T05:12:41.075Z,17.78
2018-07-05T05:15:27.743Z,17.95
2018-07-05T05:18:14.139Z,18.25
2018-07-05T05:21:00.531Z,18.45
2018-07-05T05:23:47.203Z,18.53
2018-07-05T05:26:33.908Z,18.83
2018-07-05T05:29:20.236Z,18.72
2018-07-05T05:32:06.599Z,18.79
2018-07-05T05:34:52.995Z,19.18
2018-07-05T05:37:39.487Z,19.53
2018-07-05T05:40:25.989Z,19.83
2018-07-05T05:43:12.427Z,20.04
2018-07-05T05:45:59.152Z,20.15
2018-07-05T05:48:45.770Z,20.44
2018-07-05T05:51:32.183Z,20.98
2018-07-05T05:54:18.512Z,20.87
2018-07-05T05:57:04.887Z,21.06
2018-07-05T05:59:51.185Z,21.18
2018-07-05T06:02:37.528Z,21.81
2018-07-05T06:05:23.935Z,22.95
2018-07-05T06:08:10.343Z,23.07
2018-07-05T06:10:56.690Z,22.94
2018-07-05T06:13:43.484Z,23.20
2018-07-05T06:16:30.009Z,23.89
2018-07-05T06:19:16.847Z,25.17
2018-07-05T06:22:03.500Z,24.00
2018-07-05T06:24:49.999Z,23.58
2018-07-05T06:27:36.413Z,23.52
2018-07-05T06:30:22.775Z,23.96
2018-07-05T06:33:09.123Z,24.98
2018-07-05T06:35:55.599Z,24.39
2018-07-05T06:38:41.951Z,24.38
2018-07-05T06:41:28.307Z,25.19
2018-07-05T06:44:14.717Z,25.46
2018-07-05T06:47:01.268Z,26.74
2018-07-05T06:49:47.799Z,25.95
2018-07-05T06:52:34.303Z,24.98
2018-07-05T06:55:20.695Z,25.20
2018-07-05T06:58:07.086Z,25.61
2018-07-05T07:00:53.566Z,27.40
2018-07-05T07:03:40.171Z,28.64
2018-07-05T07:06:26.543Z,28.89
2018-07-05T07:09:12.968Z,28.66
2018-07-05T07:11:59.598Z,28.48
2018-07-05T07:14:46.195Z,28.41
2018-07-05T07:17:32.651Z,28.66
2018-07-05T07:20:19.099Z,30.06
2018-07-05T07:23:05.416Z,28.85
2018-07-05T07:25:51.763Z,29.01
2018-07-05T07:28:38.180Z,29.68
2018-07-05T07:31:24.837Z,30.44
2018-07-05T07:34:11.106Z,31.11
2018-07-05T07:36:57.412Z,29.96
2018-07-05T07:39:43.887Z,30.50
2018-07-05T07:42:17.906Z,30.44
2018-07-05T07:44:45.791Z,29.46
2018-07-05T07:47:13.767Z,28.91
2018-07-05T07:49:41.761Z,28.06
2018-07-05T07:52:09.686Z,28.26
2018-07-05T07:54:37.575Z,27.99
2018-07-05T07:57:05.931Z,27.10
2018-07-05T07:59:33.671Z,26.69
2018-07-05T08:02:01.457Z,26.21
2018-07-05T08:04:29.230Z,25.99
2018-07-05T08:06:56.999Z,26.60
2018-07-05T08:09:24.978Z,27.49
2018-07-05T08:11:52.772Z,28.44
2018-07-05T08:14:20.575Z,29.10
2018-07-05T08:16:48.356Z,29.39
2018-07-05T08:19:16.147Z,30.91
2018-07-05T08:21:43.903Z,31.48
2018-07-05T08:24:11.699Z,32.28
2018-07-05T08:26:39.476Z,31.77
2018-07-05T08:29:07.895Z,31.52
2018-07-05T08:31:35.671Z,29.61
2018-07-05T08:34:03.448Z,31.08
2018-07-05T08:36:31.221Z,31.09
2018-07-05T08:38:59.083Z,30.79
2018-07-05T08:41:27.036Z,30.23
2018-07-05T08:43:54.847Z,30.82
2018-07-05T08:46:22.941Z,30.97
2018-07-05T08:48:50.731Z,31.61
2018-07-05T08:51:18.923Z,33.18
2018-07-05T08:53:46.735Z,32.88
2018-07-05T08:56:14.515Z,32.69
2018-07-05T08:58:42.287Z,32.17
2018-07-05T09:01:10.087Z,33.70
2018-07-05T09:03:38.272Z,33.42
2018-07-05T09:06:06.063Z,33.00
2018-07-05T09:08:34.678Z,31.00
2018-07-05T09:11:02.455Z,29.30
2018-07-05T09:13:30.220Z,30.18
2018-07-05T09:15:58.283Z,29.08
2018-07-05T09:18:26.111Z,29.22
2018-07-05T09:20:53.955Z,30.39
2018-07-05T09:23:21.808Z,30.95
2018-07-05T09:25:49.508Z,30.56
2018-07-05T09:28:17.438Z,28.54
2018-07-05T09:30:45.231Z,28.31
2018-07-05T09:33:13.127Z,29.24
2018-07-05T09:35:40.915Z,30.73
2018-07-05T09:38:08.802Z,31.21
2018-07-05T09:40:36.611Z,31.59
2018-07-05T09:43:04.391Z,29.84
2018-07-05T09:45:32.183Z,29.03
2018-07-05T09:47:59.968Z,28.39
2018-07-05T09:50:27.766Z,29.53
2018-07-05T09:52:55.888Z,29.02
2018-07-05T09:55:23.754Z,28.27
2018-07-05T09:57:51.844Z,28.62
2018-07-05T10:00:23.925Z,28.41
2018-07-05T10:02:51.678Z,28.33
2018-07-05T10:05:19.447Z,28.98
2018-07-05T10:07:47.227Z,28.91
2018-07-05T10:10:15.012Z,28.98
2018-07-05T10:12:42.936Z,29.15
2018-07-05T10:15:10.707Z,28.84
2018-07-05T10:17:38.492Z,28.11
2018-07-05T10:20:06.872Z,28.62
2018-07-05T10:22:34.759Z,27.71
2018-07-05T10:25:02.805Z,28.61
2018-07-05T10:27:31.215Z,29.24
2018-07-05T10:30:11.391Z,30.35
2018-07-05T10:32:57.720Z,29.91
2018-07-05T10:35:31.552Z,30.45
2018-07-05T10:38:00.524Z,30.19
2018-07-05T10:40:41.775Z,29.79
2018-07-05T10:43:28.267Z,30.14
2018-07-05T10:46:15.147Z,30.42
2018-07-05T10:49:01.774Z,31.04
2018-07-05T10:51:48.183Z,31.40
2018-07-05T10:54:34.559Z,31.79
2018-07-05T10:57:20.775Z,30.68
2018-07-05T11:00:07.247Z,31.06
2018-07-05T11:02:53.739Z,30.19
2018-07-05T11:05:40.910Z,30.07
2018-07-05T11:08:27.316Z,30.45
2018-07-05T11:11:13.738Z,30.14
2018-07-05T11:13:59.999Z,30.10
2018-07-05T11:16:47.052Z,30.69
2018-07-05T11:19:33.355Z,30.55
2018-07-05T11:22:19.730Z,30.22
2018-07-05T11:25:06.379Z,30.96
2018-07-05T11:27:52.985Z,30.77
2018-07-05T11:30:39.323Z,30.30
2018-07-05T11:33:25.688Z,30.62
2018-07-05T11:36:12.107Z,31.11
2018-07-05T11:38:58.443Z,32.44
2018-07-05T11:41:44.957Z,33.04
2018-07-05T11:44:31.191Z,32.07
2018-07-05T11:47:17.635Z,31.43
2018-07-05T11:50:03.972Z,29.44
2018-07-05T11:52:50.222Z,29.00
2018-07-05T11:55:37.023Z,29.89
2018-07-05T11:58:23.772Z,28.03
2018-07-05T12:01:10.175Z,27.59
2018-07-05T12:03:56.591Z,28.54
2018-07-05T12:06:42.986Z,28.48
2018-07-05T12:09:29.343Z,28.85
2018-07-05T12:12:15.670Z,28.22
2018-07-05T12:15:02.437Z,29.69
2018-07-05T12:17:48.804Z,29.05
2018-07-05T12:20:35.352Z,28.96
2018-07-05T12:23:21.881Z,29.57
2018-07-05T12:26:08.315Z,29.41
2018-07-05T12:28:54.656Z,28.38
2018-07-05T12:31:41.359Z,30.39
2018-07-05T12:34:28.023Z,31.37
2018-07-05T12:37:14.463Z,29.91
2018-07-05T12:40:00.895Z,30.75
2018-07-05T12:42:47.855Z,31.33
2018-07-05T12:45:34.307Z,32.15
2018-07-05T12:48:21.058Z,31.80
2018-07-05T12:51:07.239Z,29.76
2018-07-05T12:53:53.617Z,30.71
2018-07-05T12:56:39.980Z,28.86
2018-07-05T12:59:26.339Z,28.21
2018-07-05T13:02:13.090Z,29.08
2018-07-05T13:04:59.343Z,29.48
2018-07-05T13:07:45.724Z,29.19
2018-07-05T13:10:32.451Z,28.56
2018-07-05T13:13:18.896Z,28.00
2018-07-05T13:16:05.272Z,27.36
2018-07-05T13:18:52.134Z,27.18
2018-07-05T13:21:38.969Z,27.01
2018-07-05T13:24:25.296Z,27.25
2018-07-05T13:27:11.681Z,27.13
2018-07-05T13:29:58.023Z,27.19
2018-07-05T13:32:44.488Z,27.65
2018-07-05T13:35:31.498Z,26.95
2018-07-05T13:38:17.731Z,26.68
2018-07-05T13:41:04.031Z,26.81
2018-07-05T13:43:50.366Z,27.74
2018-07-05T13:46:36.684Z,27.69
2018-07-05T13:49:23.019Z,26.58
2018-07-05T13:52:09.232Z,26.67
2018-07-05T13:54:55.543Z,25.71
2018-07-05T13:57:41.848Z,26.22
2018-07-05T14:00:28.575Z,26.20
2018-07-05T14:03:15.079Z,27.26
2018-07-05T14:06:02.199Z,25.98
2018-07-05T14:08:48.648Z,26.54
2018-07-05T14:11:35.271Z,26.89
2018-07-05T14:14:21.486Z,27.57
2018-07-05T14:17:08.019Z,26.47
2018-07-05T14:19:54.370Z,25.91
2018-07-05T14:22:40.861Z,25.55
2018-07-05T14:25:27.383Z,25.96
2018-07-05T14:28:13.754Z,25.76
2018-07-05T14:31:00.127Z,25.35
2018-07-05T14:33:46.519Z,26.24
2018-07-05T14:36:32.851Z,25.81
2018-07-05T14:39:19.275Z,25.57
2018-07-05T14:42:05.648Z,25.89
2018-07-05T14:44:52.139Z,25.55
2018-07-05T14:47:38.434Z,25.23
2018-07-05T14:50:24.839Z,25.38
2018-07-05T14:53:11.239Z,25.32
2018-07-05T14:55:57.599Z,25.07
2018-07-05T14:58:44.018Z,24.68
2018-07-05T15:01:30.469Z,24.58
2018-07-05T15:04:16.919Z,24.74
2018-07-05T15:07:03.747Z,25.28
2018-07-05T15:09:50.620Z,25.78
2018-07-05T15:12:36.996Z,26.23
2018-07-05T15:15:23.505Z,26.46
2018-07-05T15:18:09.889Z,25.39
2018-07-05T15:20:56.258Z,24.98
2018-07-05T15:23:42.651Z,24.83
2018-07-05T15:26:29.045Z,24.48
2018-07-05T15:29:15.435Z,24.70
2018-07-05T15:32:01.916Z,24.87
2018-07-05T15:34:48.291Z,24.72
2018-07-05T15:37:34.670Z,24.94
2018-07-05T15:40:21.203Z,25.20
2018-07-05T15:43:07.935Z,25.49
2018-07-05T15:45:54.427Z,25.73
2018-07-05T15:48:40.787Z,25.95
2018-07-05T15:51:27.159Z,25.95
2018-07-05T15:54:13.522Z,26.19
2018-07-05T15:56:59.799Z,26.42
2018-07-05T15:59:46.326Z,26.92
2018-07-05T16:02:32.848Z,26.76
2018-07-05T16:05:19.192Z,26.81
2018-07-05T16:08:05.579Z,26.73
2018-07-05T16:10:52.099Z,27.16
2018-07-05T16:13:38.534Z,26.86
2018-07-05T16:16:24.906Z,26.47
2018-07-05T16:19:11.279Z,25.84
2018-07-05T16:21:58.470Z,25.85
2018-07-05T16:24:45.049Z,25.72
2018-07-05T16:27:31.399Z,26.29
2018-07-05T16:30:17.759Z,25.89
2018-07-05T16:33:04.107Z,25.74
2018-07-05T16:35:50.400Z,25.69
2018-07-05T16:38:36.987Z,25.60
2018-07-05T16:41:23.335Z,24.83
2018-07-05T16:44:09.763Z,24.24
2018-07-05T16:46:56.127Z,23.80
2018-07-05T16:49:42.427Z,24.20
2018-07-05T16:52:28.819Z,24.56
2018-07-05T16:55:15.180Z,24.22
2018-07-05T16:58:03.000Z,25.29
2018-07-05T17:00:49.688Z,24.97
2018-07-05T17:03:36.398Z,25.27
2018-07-05T17:06:23.128Z,25.04
2018-07-05T17:09:09.639Z,24.61
2018-07-05T17:11:56.973Z,24.96
2018-07-05T17:14:43.270Z,24.29
2018-07-05T17:17:29.681Z,24.78
2018-07-05T17:20:16.240Z,25.13
2018-07-05T17:23:02.619Z,24.67
2018-07-05T17:25:48.957Z,24.65
2018-07-05T17:28:35.170Z,24.83
2018-07-05T17:31:21.476Z,24.67
2018-07-05T17:34:10.354Z,24.60
2018-07-05T17:36:56.713Z,24.25
2018-07-05T17:39:43.152Z,23.86
2018-07-05T17:42:29.695Z,23.83
2018-07-05T17:45:18.033Z,24.01
2018-07-05T17:48:04.347Z,23.76
2018-07-05T17:50:50.558Z,23.87
2018-07-05T17:53:36.895Z,23.75
2018-07-05T17:56:23.227Z,23.79
2018-07-05T17:59:09.467Z,23.80
2018-07-05T18:01:55.934Z,23.76
2018-07-05T18:04:42.348Z,23.65
2018-07-05T18:07:28.843Z,23.60
2018-07-05T18:10:15.547Z,23.38
2018-07-05T18:13:02.978Z,23.38
2018-07-05T18:15:49.215Z,23.08
2018-07-05T18:18:35.574Z,22.88
2018-07-05T18:21:22.187Z,22.82
2018-07-05T18:24:10.435Z,22.72
2018-07-05T18:26:56.819Z,22.49
2018-07-05T18:29:43.111Z,22.36
2018-07-05T18:32:29.682Z,22.05
2018-07-05T18:35:16.205Z,22.20
2018-07-05T18:38:02.574Z,22.10
2018-07-05T18:40:48.979Z,21.92
2018-07-05T18:43:35.762Z,21.94
2018-07-05T18:46:22.256Z,21.90
2018-07-05T18:49:09.287Z,21.90
2018-07-05T18:51:55.781Z,21.93
2018-07-05T18:54:42.273Z,21.85
2018-07-05T18:57:28.883Z,21.89
2018-07-05T19:00:15.475Z,21.84
2018-07-05T19:03:02.221Z,21.83
2018-07-05T19:05:48.791Z,21.63
2018-07-05T19:08:35.566Z,21.62
2018-07-05T19:11:21.906Z,21.59
2018-07-05T19:14:08.382Z,21.54
2018-07-05T19:16:54.679Z,21.49
2018-07-05T19:19:41.090Z,21.36
2018-07-05T19:22:27.839Z,21.21
2018-07-05T19:25:14.438Z,21.21
2018-07-05T19:28:00.971Z,21.17
2018-07-05T19:30:47.363Z,21.06
2018-07-05T19:33:33.899Z,21.12
2018-07-05T19:36:20.295Z,21.13
2018-07-05T19:39:08.198Z,21.04
2018-07-05T19:41:54.867Z,21.11
2018-07-05T19:44:41.588Z,20.97
2018-07-05T19:47:28.356Z,21.01
2018-07-05T19:50:14.828Z,20.98
2018-07-05T19:53:01.251Z,20.80
2018-07-05T19:55:47.630Z,20.77
2018-07-05T19:58:34.019Z,20.71
2018-07-05T20:01:20.391Z,20.60
2018-07-05T20:04:06.978Z,20.30
2018-07-05T20:06:53.571Z,20.04
2018-07-05T20:09:39.906Z,20.03
2018-07-05T20:12:26.331Z,19.86
2018-07-05T20:15:12.683Z,19.70
2018-07-05T20:17:59.085Z,19.62
2018-07-05T20:20:45.659Z,19.44
2018-07-05T20:23:34.192Z,19.42
2018-07-05T20:26:20.660Z,19.47
2018-07-05T20:29:07.743Z,19.51
2018-07-05T20:31:54.355Z,19.52
2018-07-05T20:34:41.276Z,19.63
2018-07-05T20:37:27.738Z,19.71
2018-07-05T20:40:14.192Z,19.69
2018-07-05T20:43:00.879Z,19.59
2018-07-05T20:45:47.403Z,19.58
2018-07-05T20:48:33.720Z,19.65
2018-07-05T20:51:20.055Z,19.66
2018-07-05T20:54:06.465Z,19.74
2018-07-05T20:56:53.267Z,19.69
2018-07-05T20:59:40.716Z,19.65
2018-07-05T21:02:26.949Z,19.67
2018-07-05T21:05:13.184Z,19.76
2018-07-05T21:07:59.612Z,19.68
2018-07-05T21:10:46.098Z,19.72
2018-07-05T21:13:32.489Z,19.77
2018-07-05T21:16:18.791Z,19.80
2018-07-05T21:19:05.231Z,19.74
2018-07-05T21:21:51.618Z,19.80
2018-07-05T21:24:38.107Z,19.77
2018-07-05T21:27:24.787Z,19.72
2018-07-05T21:30:11.340Z,19.74
2018-07-05T21:32:57.707Z,19.74
2018-07-05T21:35:44.122Z,19.72
2018-07-05T21:38:30.447Z,19.67
2018-07-05T21:41:16.791Z,19.74
2018-07-05T21:44:03.154Z,19.76
2018-07-05T21:46:49.768Z,19.80
2018-07-05T21:49:36.706Z,19.87
2018-07-05T21:52:23.436Z,19.76
2018-07-05T21:55:09.768Z,19.70
2018-07-05T21:57:56.278Z,19.70
2018-07-05T22:00:42.511Z,19.72
2018-07-05T22:03:28.836Z,19.66
2018-07-05T22:06:15.273Z,19.66
2018-07-05T22:09:01.847Z,19.70
2018-07-05T22:11:48.392Z,19.66
2018-07-05T22:14:34.819Z,19.60
2018-07-05T22:17:26.508Z,19.62
2018-07-05T22:20:18.048Z,19.56
2018-07-05T22:23:09.907Z,19.62
2018-07-05T22:26:01.728Z,19.61
2018-07-05T22:28:53.324Z,19.60
2018-07-05T22:31:39.639Z,19.65
2018-07-05T22:34:25.982Z,19.70
2018-07-05T22:37:12.533Z,19.78
2018-07-05T22:39:58.951Z,19.67
2018-07-05T22:42:45.484Z,19.69
2018-07-05T22:45:31.854Z,19.64
2018-07-05T22:48:18.331Z,19.60
2018-07-05T22:51:04.731Z,19.50
2018-07-05T22:53:51.193Z,19.41
2018-07-05T22:56:37.966Z,19.35
2018-07-05T22:59:24.369Z,19.19
2018-07-05T23:02:10.739Z,19.09
2018-07-05T23:04:57.231Z,19.01
2018-07-05T23:07:43.660Z,19.01
2018-07-05T23:10:30.255Z,19.01
2018-07-05T23:13:16.652Z,18.99
2018-07-05T23:16:03.423Z,18.94
2018-07-05T23:18:49.873Z,18.90
2018-07-05T23:21:36.556Z,18.80
2018-07-05T23:24:22.967Z,18.72
2018-07-05T23:27:09.379Z,18.82
2018-07-05T23:29:55.650Z,18.78
2018-07-05T23:32:42.036Z,18.70
2018-07-05T23:35:28.405Z,18.61
2018-07-05T23:38:14.850Z,18.61
2018-07-05T23:41:01.220Z,18.46
2018-07-05T23:43:47.608Z,18.32
2018-07-05T23:46:34.004Z,18.28
2018-07-05T23:49:20.495Z,18.11
2018-07-05T23:52:07.276Z,18.01
2018-07-05T23:54:53.899Z,17.89
2018-07-05T23:57:40.270Z,17.75
